Time;durP1;ratioP1;P1;durP2;ratioP2;P2;SDS_P1;SDS_P2;PMS_P1;PMS_P2;Temp;Humidity;BMP_temperature;BMP_pressure;BME280_temperature;BME280_humidity;BME280_pressure;Samples;Min_cycle;Max_cycle;Signal;HPM_P1;HPM_P2
2022/03/24 00:00:10;;;;;;;122.03;47.43;;;;;;;-2.44;100.00;101563.38;1713962;83;21565;-61
2022/03/24 00:02:40;;;;;;;111.10;44.20;;;;;;;-2.57;100.00;101560.11;1713767;83;21079;-61
2022/03/24 00:05:11;;;;;;;112.13;44.63;;;;;;;-2.68;100.00;101559.37;1713815;83;21059;-61
2022/03/24 00:07:41;;;;;;;108.33;43.40;;;;;;;-2.71;100.00;101562.25;1713879;84;21032;-61
2022/03/24 00:10:10;;;;;;;101.00;43.10;;;;;;;-2.73;100.00;101551.27;1687749;84;21032;-61
2022/03/24 00:12:39;;;;;;;101.33;43.57;;;;;;;-2.78;100.00;101547.76;1713892;83;21035;-61
2022/03/24 00:15:08;;;;;;;118.23;44.13;;;;;;;-2.79;100.00;101549.44;1713808;84;21540;-61
2022/03/24 00:17:35;;;;;;;114.07;44.40;;;;;;;-2.73;100.00;101542.04;1713944;83;21587;-62
2022/03/24 00:20:05;;;;;;;115.63;44.40;;;;;;;-2.66;100.00;101547.67;1714041;84;21107;-61
2022/03/24 00:22:33;;;;;;;109.33;43.73;;;;;;;-2.75;100.00;101541.14;1713765;83;21047;-61
2022/03/24 00:25:01;;;;;;;103.53;40.63;;;;;;;-2.77;100.00;101541.51;1713624;83;21017;-61
2022/03/24 00:27:29;;;;;;;91.00;38.40;;;;;;;-2.74;100.00;101535.69;1713588;83;21536;-61
2022/03/24 00:29:57;;;;;;;96.10;39.00;;;;;;;-2.83;100.00;101533.78;1713733;83;21087;-61
2022/03/24 00:32:25;;;;;;;84.00;34.70;;;;;;;-2.88;100.00;101532.41;1713485;84;21052;-61
2022/03/24 00:34:52;;;;;;;81.43;33.23;;;;;;;-2.88;100.00;101526.11;1713796;83;20993;-61
2022/03/24 00:37:20;;;;;;;67.03;28.93;;;;;;;-2.94;100.00;101525.06;1713621;83;21112;-61
2022/03/24 00:39:48;;;;;;;64.33;25.47;;;;;;;-3.00;100.00;101515.70;1713615;84;21087;-61
2022/03/24 00:42:16;;;;;;;66.93;27.20;;;;;;;-2.98;100.00;101510.30;1713745;84;21134;-61
2022/03/24 00:44:44;;;;;;;59.53;26.50;;;;;;;-2.94;100.00;101503.27;1713714;84;21103;-62
2022/03/24 00:47:16;;;;;;;58.63;24.73;;;;;;;-2.96;100.00;101509.92;1713682;83;21103;-61
2022/03/24 00:49:44;;;;;;;67.97;26.80;;;;;;;-3.03;100.00;101510.14;1708999;84;21107;-61
2022/03/24 00:52:11;;;;;;;65.53;26.23;;;;;;;-3.05;100.00;101502.95;1663734;86;21551;-61
2022/03/24 00:54:39;;;;;;;68.73;28.60;;;;;;;-3.12;100.00;101493.53;1676287;86;21020;-61
2022/03/24 00:57:07;;;;;;;73.17;29.70;;;;;;;-3.11;100.00;101493.12;1676290;86;21068;-61
2022/03/24 00:59:34;;;;;;;68.50;29.77;;;;;;;-3.13;100.00;101490.55;1676557;86;22278;-61
2022/03/24 01:02:10;;;;;;;74.90;31.30;;;;;;;-3.17;100.00;101491.28;1676214;86;21078;-61
2022/03/24 01:04:34;;;;;;;80.43;32.30;;;;;;;-3.22;100.00;101489.90;1676138;86;21492;-61
2022/03/24 01:07:03;;;;;;;82.27;32.40;;;;;;;-3.27;100.00;101481.77;1676400;86;21095;-61
2022/03/24 01:09:32;;;;;;;74.43;29.83;;;;;;;-3.27;100.00;101473.80;1676462;86;21031;-61
2022/03/24 01:12:02;;;;;;;74.57;31.07;;;;;;;-3.24;100.00;101473.05;1676632;86;21075;-62
2022/03/24 01:14:32;;;;;;;78.30;32.20;;;;;;;-3.18;100.00;101472.34;1676601;86;21047;-61
2022/03/24 01:16:58;;;;;;;74.50;30.03;;;;;;;-3.14;100.00;101463.68;1676601;86;21103;-62
2022/03/24 01:19:26;;;;;;;95.17;37.07;;;;;;;-3.20;100.00;101460.99;1676415;86;21114;-61
2022/03/24 01:21:53;;;;;;;89.97;37.17;;;;;;;-3.32;100.00;101457.72;1676425;86;21178;-61
2022/03/24 01:24:24;;;;;;;83.83;35.03;;;;;;;-3.32;100.00;101459.39;1676428;86;21079;-61
2022/03/24 01:26:53;;;;;;;79.73;32.67;;;;;;;-3.30;100.00;101465.33;1676469;86;21587;-61
2022/03/24 01:29:22;;;;;;;75.40;32.57;;;;;;;-3.27;100.00;101462.88;1676561;86;21028;-61
2022/03/24 01:31:51;;;;;;;73.17;30.83;;;;;;;-3.21;100.00;101465.56;1676474;86;21063;-61
2022/03/24 01:34:19;;;;;;;73.87;28.90;;;;;;;-3.23;100.00;101463.41;1676517;86;21078;-61
2022/03/24 01:36:47;;;;;;;66.40;27.57;;;;;;;-3.31;100.00;101462.34;1676374;86;21110;-62
2022/03/24 01:39:14;;;;;;;64.23;26.93;;;;;;;-3.39;100.00;101462.53;1676590;86;21067;-61
2022/03/24 01:41:46;;;;;;;64.60;27.57;;;;;;;-3.37;100.00;101460.91;1676268;86;21059;-61
2022/03/24 01:44:17;;;;;;;61.67;26.83;;;;;;;-3.42;100.00;101444.44;1651254;86;21035;-62
2022/03/24 01:46:59;;;;;;;61.63;26.83;;;;;;;-3.42;100.00;101444.02;1676515;86;21043;-61
2022/03/24 01:49:29;;;;;;;63.43;27.07;;;;;;;-3.38;100.00;101450.41;1676479;86;21091;-61
2022/03/24 01:51:58;;;;;;;59.47;25.93;;;;;;;-3.37;100.00;101450.43;1698344;84;21001;-64
2022/03/24 01:54:31;;;;;;;66.77;27.53;;;;;;;-3.33;100.00;101449.70;1698866;84;21532;-61
2022/03/24 01:57:00;;;;;;;62.20;26.57;;;;;;;-3.38;100.00;101445.38;1684692;84;21048;-61
2022/03/24 01:59:29;;;;;;;63.93;27.47;;;;;;;-3.45;100.00;101446.47;1698541;84;21087;-61
2022/03/24 02:01:58;;;;;;;63.37;27.40;;;;;;;-3.42;100.00;101433.10;1685757;84;20996;-61
2022/03/24 02:04:26;;;;;;;62.40;26.83;;;;;;;-3.36;100.00;101433.27;1694054;85;21096;-61
2022/03/24 02:06:55;;;;;;;64.73;28.20;;;;;;;-3.35;100.00;101431.19;1693883;84;21067;-61
2022/03/24 02:09:24;;;;;;;58.47;25.23;;;;;;;-3.30;100.00;101430.08;1694071;84;21044;-61
2022/03/24 02:11:52;;;;;;;65.50;26.77;;;;;;;-3.46;100.00;101431.31;1693853;85;21055;-61
2022/03/24 02:14:21;;;;;;;58.07;26.17;;;;;;;-3.47;100.00;101434.63;1694006;84;21497;-61
2022/03/24 02:16:50;;;;;;;63.93;27.03;;;;;;;-3.53;100.00;101429.00;1693834;83;21040;-61
2022/03/24 02:19:22;;;;;;;63.17;27.17;;;;;;;-3.60;100.00;101421.27;1693851;83;21017;-61
2022/03/24 02:21:55;;;;;;;59.60;25.90;;;;;;;-3.58;100.00;101423.00;1694013;85;21044;-61
2022/03/24 02:24:26;;;;;;;93.33;35.52;;;;;;;-3.58;100.00;101424.27;1678555;85;21028;-61
2022/03/24 02:26:58;;;;;;;71.53;28.17;;;;;;;-3.69;100.00;101421.45;1694007;85;21040;-61
2022/03/24 02:29:25;;;;;;;66.83;27.90;;;;;;;-3.70;100.00;101419.73;1693793;84;21076;-61
2022/03/24 02:31:54;;;;;;;73.77;29.87;;;;;;;-3.72;100.00;101425.12;1694041;84;21599;-61
2022/03/24 02:37:16;;;;;;;90.77;34.37;;;;;;;-3.68;100.00;101417.26;1618055;88;21056;-61
2022/03/24 02:39:50;;;;;;;105.77;37.87;;;;;;;-3.65;100.00;101414.81;1618403;89;20992;-60
2022/03/24 02:42:23;;;;;;;97.70;35.00;;;;;;;-3.68;100.00;101411.81;1651886;84;21553;-61
2022/03/24 02:44:57;;;;;;;97.67;36.03;;;;;;;-3.80;100.00;101408.11;1694108;85;21509;-61
2022/03/24 02:47:26;;;;;;;83.20;33.30;;;;;;;-3.71;100.00;101407.09;1693806;85;21088;-61
2022/03/24 02:49:57;;;;;;;73.30;30.60;;;;;;;-3.87;100.00;101408.34;1693803;83;21166;-61
2022/03/24 02:52:27;;;;;;;69.60;28.37;;;;;;;-3.93;100.00;101400.20;1697714;84;21080;-61
2022/03/24 02:54:55;;;;;;;81.87;31.07;;;;;;;-3.88;100.00;101397.40;1713837;84;21090;-61
2022/03/24 02:57:23;;;;;;;76.57;30.33;;;;;;;-3.76;100.00;101402.35;1713845;84;21012;-62
2022/03/24 02:59:51;;;;;;;85.93;31.57;;;;;;;-3.83;100.00;101402.17;1713683;83;21087;-61
2022/03/24 03:02:19;;;;;;;150.40;43.70;;;;;;;-3.86;100.00;101398.30;1713553;83;21091;-61
2022/03/24 03:04:53;;;;;;;110.47;37.30;;;;;;;-3.91;100.00;101395.22;1713681;84;21055;-61
2022/03/24 03:07:17;;;;;;;114.80;38.07;;;;;;;-3.98;100.00;101408.41;1713246;84;21559;-61
2022/03/24 03:09:44;;;;;;;146.67;42.43;;;;;;;-4.01;100.00;101410.44;1713782;83;21080;-61
2022/03/24 03:12:11;;;;;;;103.80;35.80;;;;;;;-4.08;100.00;101409.38;1713682;83;21048;-61
2022/03/24 03:14:41;;;;;;;93.97;33.73;;;;;;;-4.15;100.00;101407.50;1713759;84;21501;-61
2022/03/24 03:17:09;;;;;;;81.47;31.10;;;;;;;-4.25;100.00;101410.13;1713577;84;21084;-61
2022/03/24 03:19:39;;;;;;;79.87;31.63;;;;;;;-4.27;100.00;101402.10;1713875;83;21043;-61
2022/03/24 03:22:08;;;;;;;81.57;34.97;;;;;;;-4.26;100.00;101396.25;1713703;84;21135;-61
2022/03/24 03:24:35;;;;;;;84.40;36.17;;;;;;;-4.31;100.00;101396.53;1713593;83;21596;-61
2022/03/24 03:27:04;;;;;;;88.30;36.20;;;;;;;-4.33;100.00;101399.39;1713758;83;21083;-61
2022/03/24 03:29:33;;;;;;;88.63;41.40;;;;;;;-4.33;100.00;101388.94;1713662;83;21065;-61
2022/03/24 03:32:00;;;;;;;89.37;40.37;;;;;;;-4.28;100.00;101376.50;1713772;83;21063;-61
2022/03/24 03:34:28;;;;;;;80.67;36.63;;;;;;;-4.23;100.00;101382.13;1713632;83;21052;-61
2022/03/24 03:36:56;;;;;;;77.63;34.53;;;;;;;-4.15;100.00;101382.36;1713649;84;21069;-61
2022/03/24 03:39:25;;;;;;;74.80;33.70;;;;;;;-4.14;100.00;101389.08;1713765;84;21084;-61
2022/03/24 03:41:54;;;;;;;73.17;32.07;;;;;;;-4.16;100.00;101384.41;1713517;84;21048;-61
2022/03/24 03:44:23;;;;;;;64.80;29.60;;;;;;;-4.15;100.00;101372.72;1713785;84;21028;-61
2022/03/24 03:46:51;;;;;;;64.63;29.20;;;;;;;-4.11;100.00;101378.28;1713709;84;21084;-62
2022/03/24 03:49:21;;;;;;;72.83;30.03;;;;;;;-4.05;100.00;101373.44;1713797;84;21064;-61
2022/03/24 03:51:50;;;;;;;64.13;26.97;;;;;;;-4.06;100.00;101372.56;1713496;84;21158;-62
2022/03/24 03:54:17;;;;;;;56.93;24.87;;;;;;;-4.04;100.00;101375.97;1713542;84;21084;-61
2022/03/24 03:56:44;;;;;;;61.57;28.53;;;;;;;-4.15;100.00;101371.45;1713619;83;21044;-62
2022/03/24 03:59:12;;;;;;;63.67;28.80;;;;;;;-4.16;100.00;101367.22;1713574;83;21060;-61
2022/03/24 04:01:41;;;;;;;67.07;30.63;;;;;;;-4.07;100.00;101366.25;1713623;83;21064;-62
2022/03/24 04:04:12;;;;;;;67.70;30.80;;;;;;;-4.04;100.00;101367.17;1713563;84;21072;-62
2022/03/24 04:06:37;;;;;;;70.93;32.33;;;;;;;-4.06;100.00;101360.39;1713459;84;21504;-61
2022/03/24 04:09:04;;;;;;;80.60;32.77;;;;;;;-3.98;100.00;101365.25;1713599;83;21104;-62
2022/03/24 04:11:35;;;;;;;82.63;34.77;;;;;;;-3.94;100.00;101362.01;1713648;83;21016;-62
2022/03/24 04:14:00;;;;;;;72.33;32.47;;;;;;;-3.84;100.00;101361.88;1713781;84;21068;-62
2022/03/24 04:16:28;;;;;;;60.83;27.53;;;;;;;-3.72;100.00;101357.59;1713733;83;21096;-62
2022/03/24 04:18:55;;;;;;;62.70;28.47;;;;;;;-3.69;100.00;101361.06;1713559;84;21099;-62
2022/03/24 04:21:23;;;;;;;68.03;29.00;;;;;;;-3.63;100.00;101356.58;1713662;84;21628;-62
2022/03/24 04:23:51;;;;;;;63.93;29.17;;;;;;;-3.64;100.00;101356.99;1713784;83;21084;-62
2022/03/24 04:26:18;;;;;;;63.00;29.30;;;;;;;-3.56;100.00;101362.66;1713779;84;21134;-62
2022/03/24 04:28:45;;;;;;;67.23;31.07;;;;;;;-3.53;100.00;101354.76;1713781;83;21104;-62
2022/03/24 04:31:13;;;;;;;71.60;30.33;;;;;;;-3.47;100.00;101358.73;1713791;84;21044;-62
2022/03/24 04:33:42;;;;;;;63.87;29.63;;;;;;;-3.39;100.00;101346.33;1713764;83;21071;-61
2022/03/24 04:36:10;;;;;;;73.73;33.93;;;;;;;-3.33;100.00;101344.38;1713954;84;21092;-61
2022/03/24 04:38:38;;;;;;;78.27;34.03;;;;;;;-3.30;100.00;101336.92;1713767;83;21553;-62
2022/03/24 04:41:06;;;;;;;82.40;35.73;;;;;;;-3.16;100.00;101341.03;1714027;84;21039;-62
2022/03/24 04:43:34;;;;;;;81.87;39.43;;;;;;;-3.02;100.00;101340.58;1713946;84;21552;-62
2022/03/24 04:46:03;;;;;;;83.20;36.63;;;;;;;-2.83;100.00;101341.03;1713688;84;21017;-61
2022/03/24 04:48:36;;;;;;;78.47;37.23;;;;;;;-2.66;100.00;101341.00;1713893;84;21043;-62
2022/03/24 04:51:05;;;;;;;71.63;34.07;;;;;;;-2.63;100.00;101344.03;1713794;83;21064;-61
2022/03/24 04:53:35;;;;;;;76.80;34.77;;;;;;;-2.48;100.00;101338.05;1713853;84;21040;-61
2022/03/24 04:56:04;;;;;;;75.13;34.37;;;;;;;-2.39;100.00;101333.66;1713969;84;21059;-60
2022/03/24 04:58:32;;;;;;;72.80;35.27;;;;;;;-2.29;100.00;101340.98;1687511;84;21100;-61
2022/03/24 05:01:01;;;;;;;81.67;35.10;;;;;;;-2.22;100.00;101341.16;1713763;84;21091;-61
2022/03/24 05:03:29;;;;;;;76.63;35.20;;;;;;;-2.11;100.00;101339.27;1713934;84;21496;-61
2022/03/24 05:05:56;;;;;;;74.70;35.43;;;;;;;-2.00;100.00;101339.52;1713907;83;21048;-61
2022/03/24 05:08:25;;;;;;;81.77;36.80;;;;;;;-1.94;100.00;101339.65;1713716;83;21068;-61
2022/03/24 05:10:52;;;;;;;82.03;36.93;;;;;;;-1.85;100.00;101333.09;1713630;83;21560;-61
2022/03/24 05:13:21;;;;;;;78.30;37.30;;;;;;;-1.76;100.00;101327.39;1713844;83;21052;-61
2022/03/24 05:15:49;;;;;;;83.50;39.43;;;;;;;-1.65;100.00;101336.42;1713669;84;21516;-61
2022/03/24 05:18:17;;;;;;;93.93;43.37;;;;;;;-1.52;100.00;101334.59;1713967;84;21048;-61
2022/03/24 05:20:46;;;;;;;91.70;44.20;;;;;;;-1.38;100.00;101337.34;1713701;83;21540;-61
2022/03/24 05:23:15;;;;;;;100.07;46.30;;;;;;;-1.25;100.00;101336.75;1713693;83;21076;-61
2022/03/24 05:25:44;;;;;;;100.40;45.53;;;;;;;-1.06;100.00;101329.07;1713819;83;21095;-60
2022/03/24 05:28:12;;;;;;;95.23;46.17;;;;;;;-0.91;100.00;101331.02;1713642;84;21524;-62
2022/03/24 05:30:40;;;;;;;94.90;46.10;;;;;;;-0.72;100.00;101328.36;1713828;84;21016;-61
2022/03/24 05:33:08;;;;;;;99.27;46.23;;;;;;;-0.52;100.00;101321.50;1713699;83;21056;-62
2022/03/24 05:35:36;;;;;;;95.00;45.03;;;;;;;-0.32;100.00;101325.16;1713661;84;21047;-61
2022/03/24 05:38:04;;;;;;;86.60;43.60;;;;;;;-0.16;100.00;101320.28;1713938;83;21047;-61
2022/03/24 05:40:32;;;;;;;86.97;40.93;;;;;;;-0.04;100.00;101315.37;1713917;84;21056;-61
2022/03/24 05:43:03;;;;;;;79.37;37.70;;;;;;;0.13;100.00;101308.84;1735892;82;21076;-61
2022/03/24 05:45:30;;;;;;;74.03;35.93;;;;;;;0.26;100.00;101308.98;1731098;82;21084;-61
2022/03/24 05:47:59;;;;;;;67.08;33.50;;;;;;;0.44;100.00;101302.84;1735487;82;21004;-62
2022/03/24 05:50:29;;;;;;;67.37;32.48;;;;;;;0.68;100.00;101303.94;1685975;82;21525;-61
2022/03/24 05:53:17;;;;;;;64.00;32.65;;;;;;;0.93;100.00;101300.80;1728044;82;21062;-61
2022/03/24 05:55:45;;;;;;;70.70;33.33;;;;;;;1.12;100.00;101303.47;1672224;85;21047;-61
2022/03/24 05:58:12;;;;;;;65.80;31.07;;;;;;;1.33;100.00;101301.06;1721028;83;21011;-61
2022/03/24 06:00:41;;;;;;;62.55;31.35;;;;;;;1.56;100.00;101297.82;1672468;85;21088;-61
2022/03/24 06:03:09;;;;;;;64.65;30.35;;;;;;;1.77;100.00;101294.57;1724238;83;21008;-61
2022/03/24 06:05:40;;;;;;;61.20;30.25;;;;;;;2.04;99.78;101297.63;1724937;83;21025;-61
2022/03/24 06:08:07;;;;;;;57.97;28.93;;;;;;;2.33;97.62;101295.20;1671960;85;21095;-61
2022/03/24 06:10:36;;;;;;;57.33;28.00;;;;;;;2.59;94.68;101299.47;1664987;85;21013;-61
2022/03/24 06:13:04;;;;;;;57.70;29.37;;;;;;;2.86;91.62;101291.04;1716571;83;20985;-61
2022/03/24 06:15:34;;;;;;;60.92;29.60;;;;;;;3.10;89.31;101288.05;1721370;83;21057;-61
2022/03/24 06:18:01;;;;;;;63.78;29.50;;;;;;;3.27;87.64;101286.78;1676131;84;21068;-61
2022/03/24 06:20:29;;;;;;;56.08;26.35;;;;;;;3.47;86.34;101277.41;1721635;83;21024;-62
2022/03/24 06:22:58;;;;;;;56.28;27.40;;;;;;;3.63;84.12;101274.80;1724904;83;21057;-61
2022/03/24 06:25:26;;;;;;;56.73;28.10;;;;;;;3.80;82.85;101271.78;1696167;83;21494;-61
2022/03/24 06:27:55;;;;;;;51.70;27.13;;;;;;;3.98;81.32;101258.13;1691700;84;21065;-62
2022/03/24 06:30:25;;;;;;;55.38;26.33;;;;;;;4.27;79.40;101259.23;1692076;84;21019;-61
2022/03/24 06:32:52;;;;;;;38.92;18.80;;;;;;;4.53;75.83;101255.24;1696648;83;21035;-62
2022/03/24 06:35:21;;;;;;;36.48;16.07;;;;;;;4.53;75.83;101255.24;1686265;84;21101;-62
2022/03/24 06:37:50;;;;;;;31.15;16.48;;;;;;;4.83;71.99;101257.15;1677755;85;21120;-61
2022/03/24 06:40:19;;;;;;;23.05;12.30;;;;;;;5.09;71.20;101256.05;1677684;85;21036;-61
2022/03/24 06:42:47;;;;;;;11.28;6.25;;;;;;;5.41;67.85;101254.05;1677863;85;21021;-62
2022/03/24 06:45:15;;;;;;;16.37;5.70;;;;;;;5.78;62.48;101256.17;1677942;85;21608;-62
2022/03/24 06:47:43;;;;;;;12.30;6.25;;;;;;;6.10;60.03;101254.92;1677959;85;21044;-61
2022/03/24 06:50:16;;;;;;;10.50;5.00;;;;;;;6.40;59.11;101253.65;1677659;85;21136;-61
2022/03/24 06:52:43;;;;;;;12.43;5.80;;;;;;;6.80;56.37;101247.08;1677641;85;21175;-61
2022/03/24 06:55:16;;;;;;;10.35;5.65;;;;;;;7.05;55.24;101246.22;1690660;84;21051;-62
2022/03/24 06:57:44;;;;;;;13.62;7.20;;;;;;;7.21;54.09;101244.23;1691631;84;21043;-61
2022/03/24 07:00:16;;;;;;;13.32;7.03;;;;;;;7.50;53.53;101242.42;1691392;85;21012;-62
2022/03/24 07:02:45;;;;;;;12.60;6.47;;;;;;;7.56;53.19;101235.89;1691133;84;21575;-61
2022/03/24 07:05:14;;;;;;;13.32;6.92;;;;;;;7.62;52.60;101239.61;1691455;85;21047;-61
2022/03/24 07:07:43;;;;;;;12.40;6.55;;;;;;;7.77;52.62;101232.03;1691393;85;21074;-61
2022/03/24 07:10:11;;;;;;;12.78;6.92;;;;;;;7.84;51.99;101230.17;1691192;84;21055;-61
2022/03/24 07:12:38;;;;;;;15.38;7.80;;;;;;;8.02;51.60;101235.36;1691450;84;20976;-61
2022/03/24 07:15:12;;;;;;;14.87;7.90;;;;;;;8.20;51.69;101236.22;1691154;85;21067;-61
2022/03/24 07:17:39;;;;;;;17.87;7.40;;;;;;;8.27;50.63;101237.37;1691535;85;21626;-61
2022/03/24 07:20:09;;;;;;;12.68;7.62;;;;;;;8.38;49.88;101230.28;1691234;85;21107;-61
2022/03/24 07:22:40;;;;;;;10.98;7.28;;;;;;;8.55;49.94;101220.47;1694877;82;21030;-62
2022/03/24 07:25:09;;;;;;;14.38;7.95;;;;;;;8.67;50.30;101226.20;1707860;84;21031;-61
2022/03/24 07:27:38;;;;;;;13.58;8.38;;;;;;;8.70;49.35;101213.28;1704604;83;21047;-61
2022/03/24 07:30:07;;;;;;;12.70;7.58;;;;;;;8.79;48.85;101220.76;1704652;84;21043;-61
2022/03/24 07:32:34;;;;;;;15.75;7.65;;;;;;;9.03;47.94;101216.27;1704685;83;21035;-61
2022/03/24 07:35:04;;;;;;;13.70;7.72;;;;;;;9.08;47.30;101212.29;1676585;84;21055;-61
2022/03/24 07:37:32;;;;;;;15.80;8.13;;;;;;;9.26;47.12;101213.53;1704753;83;21064;-61
2022/03/24 07:40:00;;;;;;;14.43;8.28;;;;;;;9.55;47.94;101211.87;1704607;83;21566;-62
2022/03/24 07:42:28;;;;;;;18.60;8.58;;;;;;;9.65;46.18;101209.88;1704687;83;21527;-61
2022/03/24 07:44:56;;;;;;;13.90;8.53;;;;;;;9.81;45.90;101203.40;1704545;83;21063;-61
2022/03/24 07:47:24;;;;;;;14.93;8.15;;;;;;;9.92;45.00;101203.10;1704498;84;21019;-61
2022/03/24 07:49:51;;;;;;;18.15;8.33;;;;;;;10.00;44.57;101199.40;1704526;83;21091;-61
2022/03/24 07:52:19;;;;;;;18.55;8.25;;;;;;;10.17;44.42;101194.17;1704548;84;21122;-61
2022/03/24 07:54:59;;;;;;;12.70;8.28;;;;;;;10.13;44.82;101191.30;1706446;84;21068;-61
2022/03/24 07:57:32;;;;;;;15.75;8.95;;;;;;;10.34;44.09;101188.52;1707548;84;21493;-61
2022/03/24 08:00:00;;;;;;;15.43;8.60;;;;;;;10.28;43.98;101186.11;1708131;84;21537;-61
2022/03/24 08:02:28;;;;;;;13.70;8.88;;;;;;;10.37;44.06;101180.25;1707666;84;21100;-61
2022/03/24 08:04:55;;;;;;;16.37;9.03;;;;;;;10.52;44.29;101176.36;1706753;84;21087;-61
2022/03/24 08:07:23;;;;;;;19.02;9.68;;;;;;;10.61;43.85;101172.17;1706868;83;21017;-62
2022/03/24 08:09:51;;;;;;;15.30;9.88;;;;;;;10.74;44.03;101168.73;1706711;84;21060;-61
2022/03/24 08:12:19;;;;;;;19.60;9.78;;;;;;;10.92;42.97;101162.10;1706934;84;21033;-61
2022/03/24 08:14:46;;;;;;;23.18;10.48;;;;;;;11.11;43.72;101158.87;1706575;83;21095;-62
2022/03/24 08:17:14;;;;;;;20.30;10.95;;;;;;;11.25;43.43;101148.91;1735802;83;21082;-61
2022/03/24 08:19:41;;;;;;;20.40;10.88;;;;;;;11.22;43.61;101141.30;1736322;83;21538;-61
2022/03/24 08:22:09;;;;;;;19.55;10.85;;;;;;;11.31;43.20;101141.40;1735973;83;21122;-62
2022/03/24 08:24:36;;;;;;;20.72;12.25;;;;;;;11.39;43.32;101136.38;1735997;83;21027;-62
2022/03/24 08:27:04;;;;;;;27.05;13.32;;;;;;;11.46;42.85;101134.39;1736051;83;21082;-61
2022/03/24 08:29:32;;;;;;;18.30;11.60;;;;;;;11.51;43.07;101133.75;1735924;83;21137;-61
2022/03/24 08:32:00;;;;;;;17.92;11.70;;;;;;;11.54;42.52;101139.27;1735999;83;21039;-62
2022/03/24 08:34:27;;;;;;;22.35;12.25;;;;;;;11.53;43.39;101133.25;1735762;83;21106;-61
2022/03/24 08:36:54;;;;;;;19.65;11.93;;;;;;;11.62;42.97;101129.05;1736019;83;21031;-61
2022/03/24 08:39:22;;;;;;;20.40;12.33;;;;;;;11.68;42.97;101125.82;1735897;83;21059;-61
2022/03/24 08:41:49;;;;;;;22.62;12.60;;;;;;;11.70;42.55;101128.75;1735930;83;21055;-61
2022/03/24 08:44:16;;;;;;;22.93;12.00;;;;;;;11.69;42.25;101127.06;1735837;83;21071;-62
2022/03/24 08:46:44;;;;;;;18.98;11.73;;;;;;;11.73;42.20;101118.76;1735836;83;21130;-61
2022/03/24 08:49:12;;;;;;;21.42;12.53;;;;;;;11.81;41.85;101120.12;1736252;83;21575;-61
2022/03/24 08:51:41;;;;;;;21.02;12.18;;;;;;;11.81;41.67;101113.68;1736173;83;21384;-61
2022/03/24 08:54:08;;;;;;;19.67;12.10;;;;;;;11.92;42.10;101112.45;1733583;83;21082;-61
2022/03/24 08:56:37;;;;;;;16.87;11.38;;;;;;;11.92;41.35;101115.02;1727096;83;21071;-62
2022/03/24 08:59:07;;;;;;;20.00;11.70;;;;;;;11.83;42.05;101105.43;1727624;83;21054;-62
2022/03/24 09:01:37;;;;;;;22.95;11.73;;;;;;;11.90;42.22;101101.34;1727512;83;21051;-62
2022/03/24 09:04:04;;;;;;;24.52;11.05;;;;;;;11.85;41.43;101091.19;1727473;83;21063;-62
2022/03/24 09:06:31;;;;;;;21.30;11.40;;;;;;;11.85;40.96;101090.36;1727677;83;21082;-62
2022/03/24 09:09:00;;;;;;;17.17;9.83;;;;;;;11.97;41.67;101085.56;1727413;83;21102;-62
2022/03/24 09:11:29;;;;;;;17.10;10.08;;;;;;;11.96;40.94;101085.62;1727505;83;21126;-62
2022/03/24 09:13:57;;;;;;;15.20;8.83;;;;;;;11.95;40.43;101092.98;1727460;83;21079;-62
2022/03/24 09:16:24;;;;;;;18.35;8.95;;;;;;;11.94;40.49;101081.83;1727392;83;21540;-62
2022/03/24 09:18:52;;;;;;;13.98;8.70;;;;;;;12.06;40.42;101074.02;1727711;83;21019;-61
2022/03/24 09:21:20;;;;;;;16.45;9.20;;;;;;;12.02;40.39;101069.45;1727647;83;21615;-61
2022/03/24 09:23:49;;;;;;;12.13;8.50;;;;;;;12.30;40.24;101072.16;1727514;83;21508;-62
2022/03/24 09:26:16;;;;;;;10.98;8.13;;;;;;;12.45;39.74;101071.98;1727371;83;21078;-62
2022/03/24 09:28:44;;;;;;;13.20;9.15;;;;;;;12.40;39.20;101064.41;1727395;83;21043;-62
2022/03/24 09:31:12;;;;;;;12.65;8.30;;;;;;;12.48;39.47;101060.21;1727509;83;21055;-62
2022/03/24 09:33:39;;;;;;;13.93;8.38;;;;;;;12.60;39.43;101058.39;1727503;83;21531;-62
2022/03/24 09:36:07;;;;;;;12.23;8.58;;;;;;;12.67;39.25;101055.53;1727325;83;21567;-62
2022/03/24 09:38:34;;;;;;;13.58;7.97;;;;;;;12.65;38.46;101050.89;1727335;83;21051;-62
2022/03/24 09:41:05;;;;;;;13.10;7.85;;;;;;;12.57;38.29;101053.80;1727682;83;21074;-62
2022/03/24 09:43:41;;;;;;;12.78;8.33;;;;;;;12.82;38.56;101047.11;1727714;83;21562;-62
2022/03/24 09:46:09;;;;;;;11.48;8.08;;;;;;;12.73;38.21;101038.04;1699248;83;21015;-61
2022/03/24 09:48:37;;;;;;;11.50;7.83;;;;;;;12.82;37.93;101039.37;1727288;83;21127;-62
2022/03/24 09:51:06;;;;;;;11.70;8.10;;;;;;;12.85;38.23;101031.92;1727406;83;21554;-62
2022/03/24 09:53:34;;;;;;;14.83;8.70;;;;;;;13.03;37.90;101031.91;1727581;83;21540;-62
2022/03/24 09:56:02;;;;;;;14.65;8.73;;;;;;;13.17;38.56;101035.16;1727262;83;21078;-61
2022/03/24 09:58:30;;;;;;;15.98;8.48;;;;;;;13.23;37.29;101026.28;1727568;83;21121;-61
2022/03/24 10:00:57;;;;;;;13.30;7.72;;;;;;;13.11;37.88;101024.27;1727460;83;21099;-62
2022/03/24 10:03:26;;;;;;;19.40;8.98;;;;;;;13.04;37.96;101026.31;1727528;83;21536;-62
2022/03/24 10:06:04;;;;;;;14.80;8.85;;;;;;;13.09;37.63;101024.34;1727264;83;21019;-62
2022/03/24 10:08:32;;;;;;;15.78;8.25;;;;;;;13.19;37.52;101013.95;1727551;83;21528;-62
2022/03/24 10:11:06;;;;;;;13.18;8.65;;;;;;;13.15;37.02;101015.46;1727604;83;21047;-61
2022/03/24 10:13:54;;;;;;;15.50;8.38;;;;;;;13.12;36.86;101019.04;1726743;83;21086;-62
2022/03/24 10:16:41;;;;;;;13.98;8.63;;;;;;;13.11;37.45;101015.23;1727368;83;21027;-61
2022/03/24 10:19:16;;;;;;;14.95;8.50;;;;;;;13.29;37.28;101001.46;1727597;83;21083;-61
2022/03/24 10:21:48;;;;;;;14.53;9.95;;;;;;;13.40;37.15;101003.52;1727782;83;21098;-61
2022/03/24 10:24:22;;;;;;;15.23;9.65;;;;;;;13.50;36.27;101001.34;1727723;83;21079;-62
2022/03/24 10:27:00;;;;;;;14.73;9.05;;;;;;;13.47;36.67;101004.09;1727807;83;21051;-62
2022/03/24 10:29:30;;;;;;;20.32;10.03;;;;;;;13.66;36.89;101000.97;1727719;83;21035;-62
2022/03/24 10:32:01;;;;;;;14.73;9.10;;;;;;;13.66;36.06;100994.50;1727820;83;21043;-62
2022/03/24 10:34:38;;;;;;;15.72;9.73;;;;;;;13.74;36.21;100989.78;1727604;83;21079;-62
2022/03/24 10:37:13;;;;;;;15.83;9.78;;;;;;;13.79;36.19;100980.53;1727801;83;21079;-62
2022/03/24 10:40:05;;;;;;;15.65;9.88;;;;;;;13.55;35.02;100984.70;1727005;83;21024;-61
2022/03/24 10:42:36;;;;;;;16.25;9.78;;;;;;;13.66;36.16;100988.50;1727387;83;21066;-61
2022/03/24 10:45:20;;;;;;;17.17;9.33;;;;;;;13.74;35.56;100976.85;1727587;83;21093;-61
2022/03/24 10:48:01;;;;;;;16.97;10.55;;;;;;;13.72;36.13;100965.74;1727584;83;21036;-61
2022/03/24 10:50:39;;;;;;;12.98;9.33;;;;;;;13.85;35.70;100963.83;1726453;83;21078;-62
2022/03/24 10:53:16;;;;;;;14.40;9.63;;;;;;;13.96;35.38;100968.02;1727544;83;21063;-62
2022/03/24 10:55:55;;;;;;;14.55;9.98;;;;;;;14.01;35.58;100966.88;1727324;83;21117;-61
2022/03/24 10:58:33;;;;;;;17.55;10.08;;;;;;;14.13;36.00;100955.49;1727593;83;21099;-61
2022/03/24 11:01:04;;;;;;;20.00;10.53;;;;;;;13.88;35.53;100956.75;1727559;83;21055;-61
2022/03/24 11:03:32;;;;;;;15.32;10.48;;;;;;;14.02;35.82;100947.00;1727512;83;21114;-61
2022/03/24 11:06:12;;;;;;;14.47;9.75;;;;;;;14.11;35.04;100937.48;1727545;83;21687;-61
2022/03/24 11:08:43;;;;;;;15.25;10.13;;;;;;;14.17;34.91;100929.82;1727283;83;21043;-61
2022/03/24 11:11:16;;;;;;;16.20;10.60;;;;;;;14.33;35.09;100937.63;1727679;83;21046;-62
2022/03/24 11:13:55;;;;;;;17.92;10.13;;;;;;;14.28;34.53;100926.69;1727444;83;21583;-62
2022/03/24 11:16:27;;;;;;;15.38;9.80;;;;;;;14.28;35.12;100922.80;1727576;83;21031;-61
2022/03/24 11:19:01;;;;;;;16.93;10.10;;;;;;;14.41;34.43;100923.81;1727234;83;21867;-61
2022/03/24 11:21:44;;;;;;;14.03;9.28;;;;;;;14.41;34.48;100919.92;1727402;83;21075;-62